Time;durP1;ratioP1;P1;durP2;ratioP2;P2;SDS_P1;SDS_P2;PMS_P1;PMS_P2;Temp;Humidity;BMP_temperature;BMP_pressure;BME280_temperature;BME280_humidity;BME280_pressure;Samples;Min_cycle;Max_cycle;Signal;HPM_P1;HPM_P2
2022/01/22 00:02:05;;;;;;;10.27;7.47;;;6.80;99.90;;;;;;5064852;28;20237;-65
2022/01/22 00:04:32;;;;;;;7.20;6.25;;;6.80;99.90;;;;;;5069399;28;20226;-65
2022/01/22 00:07:01;;;;;;;11.73;9.73;;;6.80;99.90;;;;;;5071186;28;20214;-65
2022/01/22 00:09:35;;;;;;;11.07;9.05;;;6.80;99.90;;;;;;5069635;28;20322;-65
2022/01/22 00:12:06;;;;;;;17.63;13.10;;;6.80;99.90;;;;;;5068944;28;20314;-65
2022/01/22 00:14:33;;;;;;;8.70;7.05;;;6.80;99.90;;;;;;5069452;28;20219;-65
2022/01/22 00:17:02;;;;;;;9.40;7.75;;;6.80;99.90;;;;;;5067700;28;20224;-65
2022/01/22 00:19:30;;;;;;;8.02;7.20;;;6.90;99.90;;;;;;5071671;28;20237;-65
2022/01/22 00:21:58;;;;;;;11.98;9.40;;;6.90;99.90;;;;;;5070269;28;20228;-65
2022/01/22 00:24:25;;;;;;;11.77;9.48;;;6.90;99.90;;;;;;5066645;28;20219;-65
2022/01/22 00:26:52;;;;;;;8.00;7.30;;;6.90;99.90;;;;;;5066596;28;20691;-65
2022/01/22 00:29:20;;;;;;;7.90;7.03;;;7.00;99.90;;;;;;5064246;28;20568;-65
2022/01/22 00:31:47;;;;;;;22.90;16.73;;;7.00;99.90;;;;;;5070541;28;20687;-65
2022/01/22 00:34:14;;;;;;;11.93;9.25;;;7.00;99.90;;;;;;5071104;28;20223;-65
2022/01/22 00:36:41;;;;;;;11.15;8.93;;;7.00;99.90;;;;;;5063108;28;20225;-65
2022/01/22 00:39:08;;;;;;;15.68;10.52;;;7.00;99.90;;;;;;5066852;28;20220;-65
2022/01/22 00:41:35;;;;;;;9.65;8.65;;;7.00;99.90;;;;;;5067686;28;20241;-65
2022/01/22 00:44:03;;;;;;;9.15;7.80;;;7.10;99.90;;;;;;5067968;28;20215;-65
2022/01/22 00:46:34;;;;;;;14.75;11.93;;;7.00;99.90;;;;;;5071842;28;20223;-65
2022/01/22 00:49:02;;;;;;;17.48;13.40;;;7.10;99.90;;;;;;5064297;28;20229;-65
2022/01/22 00:51:29;;;;;;;11.43;8.68;;;7.10;99.90;;;;;;5067551;28;20280;-65
2022/01/22 00:53:57;;;;;;;11.38;10.18;;;7.10;99.90;;;;;;5072277;28;20253;-65
2022/01/22 00:56:24;;;;;;;9.55;8.55;;;7.10;99.90;;;;;;5066363;28;20220;-65
2022/01/22 00:58:51;;;;;;;18.50;13.52;;;7.00;99.90;;;;;;5072799;28;20226;-65
2022/01/22 01:01:17;;;;;;;15.18;10.52;;;7.00;99.90;;;;;;5066399;28;20223;-65
2022/01/22 01:03:46;;;;;;;10.48;8.25;;;7.00;99.90;;;;;;5065711;28;20699;-65
2022/01/22 01:06:13;;;;;;;9.93;8.75;;;7.00;99.90;;;;;;5063734;28;20687;-65
2022/01/22 01:08:40;;;;;;;12.55;10.40;;;7.00;99.90;;;;;;5066066;28;20231;-65
2022/01/22 01:11:10;;;;;;;8.40;7.60;;;7.10;99.90;;;;;;5073031;28;20227;-65
2022/01/22 01:13:42;;;;;;;12.20;9.52;;;7.10;99.90;;;;;;5072409;28;20277;-65
2022/01/22 01:16:19;;;;;;;10.77;9.00;;;7.10;99.90;;;;;;5065375;28;20232;-65
2022/01/22 01:32:38;;;;;;;7.22;6.53;;;7.00;99.90;;;;;;5071662;28;20224;-65
2022/01/22 01:35:08;;;;;;;7.15;6.45;;;7.10;99.90;;;;;;5075444;28;20296;-65
2022/01/22 01:37:35;;;;;;;6.25;5.65;;;7.10;99.90;;;;;;5072333;28;20624;-65
2022/01/22 01:40:05;;;;;;;5.72;5.10;;;7.10;99.90;;;;;;5072785;28;20620;-65
2022/01/22 01:42:39;;;;;;;10.57;9.43;;;7.20;99.90;;;;;;5072904;28;20306;-65
2022/01/22 01:45:07;;;;;;;10.75;8.00;;;7.10;99.90;;;;;;5072765;28;20234;-65
2022/01/22 01:47:36;;;;;;;6.00;5.40;;;7.20;99.90;;;;;;5072302;28;20232;-66
2022/01/22 01:50:03;;;;;;;11.32;9.90;;;7.20;99.90;;;;;;5072563;28;20276;-65
2022/01/22 01:52:38;;;;;;;6.40;5.80;;;7.30;99.90;;;;;;5072049;28;20221;-65
2022/01/22 01:55:11;;;;;;;5.45;4.80;;;7.30;99.90;;;;;;5072466;28;20283;-65
2022/01/22 01:57:38;;;;;;;10.38;8.88;;;7.30;99.90;;;;;;5071935;28;20680;-65
2022/01/22 02:00:12;;;;;;;5.93;5.30;;;7.30;99.90;;;;;;5072675;28;20288;-65
2022/01/22 02:02:40;;;;;;;7.15;5.20;;;7.30;99.90;;;;;;5066679;28;20668;-65
2022/01/22 02:05:10;;;;;;;9.40;6.70;;;7.30;99.90;;;;;;5070056;28;20269;-65
2022/01/22 02:07:40;;;;;;;15.88;12.95;;;7.30;99.90;;;;;;5062639;28;20303;-65
2022/01/22 02:10:09;;;;;;;6.32;5.53;;;7.30;99.90;;;;;;5072271;28;20236;-65
2022/01/22 02:13:26;;;;;;;5.80;4.57;;;7.30;99.90;;;;;;5071280;28;20621;-65
2022/01/22 02:23:51;;;;;;;4.53;4.10;;;7.30;99.90;;;;;;5071675;28;20238;-65
2022/01/22 02:26:18;;;;;;;6.43;5.82;;;7.30;99.90;;;;;;5072128;28;20223;-65
2022/01/22 02:28:49;;;;;;;15.48;12.00;;;7.30;99.90;;;;;;5072010;28;20237;-65
2022/01/22 02:31:22;;;;;;;8.88;7.20;;;7.30;99.90;;;;;;5071896;28;20306;-65
2022/01/22 02:33:56;;;;;;;3.97;3.58;;;7.20;99.90;;;;;;5071387;28;20222;-65
2022/01/22 02:36:28;;;;;;;10.57;6.68;;;7.20;99.90;;;;;;5068505;28;20231;-65
2022/01/22 02:39:02;;;;;;;4.57;4.18;;;7.20;99.90;;;;;;5065092;28;20218;-65
2022/01/22 02:41:29;;;;;;;5.20;4.70;;;7.20;99.90;;;;;;5070142;28;20603;-65
2022/01/22 02:43:57;;;;;;;6.03;5.43;;;7.20;99.90;;;;;;5070326;28;20568;-65
2022/01/22 02:46:25;;;;;;;6.13;5.30;;;7.20;99.90;;;;;;5074934;28;20548;-65
2022/01/22 02:48:56;;;;;;;5.72;5.22;;;7.20;99.90;;;;;;5071072;28;20593;-65
2022/01/22 02:51:27;;;;;;;7.63;5.85;;;7.20;99.90;;;;;;5071658;28;20238;-65
2022/01/22 02:53:55;;;;;;;8.02;7.20;;;7.20;99.90;;;;;;5070698;28;20223;-65
2022/01/22 02:56:23;;;;;;;5.53;4.68;;;7.20;99.90;;;;;;5071765;28;20584;-65
2022/01/22 02:58:51;;;;;;;4.85;4.40;;;7.20;99.90;;;;;;5071174;28;20315;-65
2022/01/22 03:01:18;;;;;;;4.93;4.47;;;7.20;99.90;;;;;;5071551;28;20224;-65
2022/01/22 03:03:45;;;;;;;7.57;5.60;;;7.20;99.90;;;;;;5067272;28;20235;-65
2022/01/22 03:06:13;;;;;;;6.18;5.55;;;7.20;99.90;;;;;;5075558;28;20226;-65
2022/01/22 03:08:42;;;;;;;6.05;4.90;;;7.20;99.90;;;;;;5075234;28;20231;-65
2022/01/22 03:11:18;;;;;;;3.20;3.00;;;7.20;99.90;;;;;;5075051;28;20223;-65
2022/01/22 03:14:34;;;;;;;3.20;2.90;;;7.20;99.90;;;;;;5075031;28;20280;-65
2022/01/22 03:17:09;;;;;;;4.60;4.20;;;7.20;99.90;;;;;;5083401;28;20328;-65
2022/01/22 03:19:59;;;;;;;5.80;3.55;;;7.20;99.90;;;;;;5075373;28;20216;-65
2022/01/22 03:22:32;;;;;;;4.43;3.58;;;7.20;99.90;;;;;;5080133;28;20216;-65
2022/01/22 03:27:48;;;;;;;3.45;3.15;;;7.20;99.90;;;;;;5074193;28;20236;-65
2022/01/22 03:30:16;;;;;;;5.03;3.75;;;7.20;99.90;;;;;;5075257;28;20314;-65
2022/01/22 03:32:47;;;;;;;6.28;5.25;;;7.20;99.90;;;;;;5075244;28;20227;-65
2022/01/22 03:35:25;;;;;;;4.60;4.03;;;7.20;99.90;;;;;;5074991;28;20230;-65
2022/01/22 03:37:55;;;;;;;7.63;5.85;;;7.20;99.90;;;;;;5073974;28;20310;-65
2022/01/22 03:40:25;;;;;;;23.92;16.17;;;7.10;99.90;;;;;;5074985;28;20226;-65
2022/01/22 03:42:54;;;;;;;7.53;4.63;;;7.10;99.90;;;;;;5074507;28;20239;-65
2022/01/22 03:45:22;;;;;;;7.55;6.43;;;7.00;99.90;;;;;;5074808;28;20226;-65
2022/01/22 03:47:49;;;;;;;5.32;4.78;;;7.00;99.90;;;;;;5074313;28;20233;-65
2022/01/22 03:50:18;;;;;;;6.15;5.57;;;7.00;99.90;;;;;;5075117;28;20242;-65
2022/01/22 03:52:45;;;;;;;12.40;8.77;;;7.00;99.90;;;;;;5076539;28;20309;-66
2022/01/22 03:55:22;;;;;;;5.43;3.92;;;6.90;99.90;;;;;;5074705;28;20223;-65
2022/01/22 03:57:50;;;;;;;9.35;6.88;;;6.90;99.90;;;;;;5073770;28;20226;-65
2022/01/22 04:00:18;;;;;;;16.85;11.40;;;6.90;99.90;;;;;;5074837;28;20555;-65
2022/01/22 04:05:30;;;;;;;6.53;5.00;;;6.90;99.90;;;;;;5075844;28;20234;-65
2022/01/22 04:08:10;;;;;;;4.97;3.97;;;6.80;99.90;;;;;;5074273;28;20232;-65
2022/01/22 04:10:38;;;;;;;5.25;4.07;;;6.80;99.90;;;;;;5060433;28;20323;-65
2022/01/22 04:13:12;;;;;;;5.63;4.15;;;6.80;99.90;;;;;;5068256;28;20226;-65
2022/01/22 04:15:40;;;;;;;8.40;4.68;;;6.70;99.90;;;;;;5062115;28;20227;-65
2022/01/22 04:26:27;;;;;;;6.72;4.50;;;6.60;99.90;;;;;;5074555;28;20221;-65
2022/01/22 04:28:56;;;;;;;3.25;2.50;;;6.60;99.90;;;;;;5074549;28;20220;-65
2022/01/22 04:31:23;;;;;;;4.00;3.20;;;6.60;99.90;;;;;;5075454;28;20727;-65
2022/01/22 04:33:50;;;;;;;4.30;3.65;;;6.60;99.90;;;;;;5082560;28;20227;-65
2022/01/22 04:36:18;;;;;;;4.40;3.15;;;6.60;99.90;;;;;;5073565;28;20233;-65
2022/01/22 04:38:45;;;;;;;2.85;2.55;;;6.50;99.90;;;;;;5073832;28;20676;-65
2022/01/22 04:41:12;;;;;;;3.50;3.13;;;6.50;99.90;;;;;;5073147;28;20227;-65
2022/01/22 04:43:41;;;;;;;4.65;2.80;;;6.50;99.90;;;;;;5073937;28;20257;-65
2022/01/22 04:46:17;;;;;;;3.80;2.97;;;6.50;99.90;;;;;;5079931;28;20233;-65
2022/01/22 04:48:53;;;;;;;4.22;3.28;;;6.60;99.90;;;;;;5087229;28;20222;-65
2022/01/22 04:56:50;;;;;;;3.42;3.10;;;6.60;99.90;;;;;;5073556;28;20674;-65
2022/01/22 04:59:21;;;;;;;3.75;3.10;;;6.70;99.90;;;;;;5065812;28;20322;-65
2022/01/22 05:01:54;;;;;;;3.55;2.90;;;6.60;99.90;;;;;;5073005;28;20239;-65
2022/01/22 05:04:20;;;;;;;4.05;3.00;;;6.60;99.90;;;;;;5071830;28;20249;-65
2022/01/22 05:06:50;;;;;;;4.28;3.03;;;6.60;99.90;;;;;;5074110;28;20227;-65
2022/01/22 05:09:17;;;;;;;4.68;3.08;;;6.60;99.90;;;;;;5072815;28;20623;-65
2022/01/22 05:11:44;;;;;;;8.63;6.40;;;6.60;99.90;;;;;;5068459;28;20235;-65
2022/01/22 05:14:11;;;;;;;3.53;2.75;;;6.60;99.90;;;;;;5072707;28;20567;-65
2022/01/22 05:16:38;;;;;;;4.30;3.15;;;6.60;99.90;;;;;;5072695;28;20245;-65
2022/01/22 05:19:12;;;;;;;5.22;3.15;;;6.60;99.90;;;;;;5070995;28;20234;-65
2022/01/22 05:21:40;;;;;;;4.78;4.32;;;6.60;99.90;;;;;;5078598;28;20230;-65
2022/01/22 05:24:12;;;;;;;5.57;2.92;;;6.60;99.90;;;;;;5073580;28;20230;-65
2022/01/22 05:27:14;;;;;;;3.78;3.38;;;6.60;99.90;;;;;;5081592;28;20234;-65
2022/01/22 05:32:35;;;;;;;3.75;2.40;;;6.60;99.90;;;;;;5072468;28;20226;-65
2022/01/22 05:37:47;;;;;;;7.32;4.05;;;6.50;99.90;;;;;;5072477;28;20301;-65
2022/01/22 05:40:14;;;;;;;4.55;2.50;;;6.50;99.90;;;;;;5069478;28;20230;-65
2022/01/22 05:42:41;;;;;;;6.65;3.63;;;6.50;99.90;;;;;;5072779;28;20249;-65
2022/01/22 05:45:09;;;;;;;5.15;3.25;;;6.50;99.90;;;;;;5072325;28;20254;-65
2022/01/22 05:47:36;;;;;;;14.38;6.80;;;6.50;99.90;;;;;;5078199;28;20234;-65
2022/01/22 05:50:08;;;;;;;5.32;2.92;;;6.50;99.90;;;;;;5079515;28;20234;-65
2022/01/22 05:52:42;;;;;;;7.20;4.65;;;6.50;99.90;;;;;;5059455;28;20365;-65
2022/01/22 06:00:35;;;;;;;4.55;3.22;;;6.40;99.90;;;;;;5064482;28;20275;-65
2022/01/22 06:03:02;;;;;;;3.75;3.10;;;6.40;99.90;;;;;;5068246;28;20234;-65
2022/01/22 06:05:30;;;;;;;3.38;3.08;;;6.40;99.90;;;;;;5072384;28;20227;-66
2022/01/22 06:07:57;;;;;;;3.83;3.53;;;6.40;99.90;;;;;;5072012;28;20337;-65
2022/01/22 06:10:28;;;;;;;4.95;3.60;;;6.40;99.90;;;;;;5071873;28;20227;-65
2022/01/22 06:13:10;;;;;;;3.95;3.30;;;6.30;99.90;;;;;;5071944;28;20252;-65
2022/01/22 06:15:37;;;;;;;3.25;2.90;;;6.40;99.90;;;;;;5064702;28;20221;-65
2022/01/22 06:18:04;;;;;;;6.07;3.40;;;6.30;99.90;;;;;;5076000;28;20950;-65
2022/01/22 06:20:33;;;;;;;5.22;3.33;;;6.30;99.90;;;;;;5071729;28;20238;-65
2022/01/22 06:23:00;;;;;;;4.70;3.03;;;6.30;99.90;;;;;;5074744;28;20279;-65
2022/01/22 06:25:27;;;;;;;4.25;3.08;;;6.30;99.90;;;;;;5072352;28;20241;-65
2022/01/22 06:27:54;;;;;;;3.15;2.92;;;6.30;99.90;;;;;;5071698;28;20575;-65
2022/01/22 06:30:21;;;;;;;4.25;3.10;;;6.30;99.90;;;;;;5072327;28;20240;-65
2022/01/22 06:32:48;;;;;;;4.10;2.97;;;6.30;99.90;;;;;;5071346;28;20230;-65
2022/01/22 06:35:15;;;;;;;4.05;3.45;;;6.30;99.90;;;;;;5072211;28;20234;-65
2022/01/22 06:37:43;;;;;;;3.70;3.40;;;6.20;99.90;;;;;;5072451;28;20675;-65
2022/01/22 06:42:55;;;;;;;3.65;3.13;;;6.20;99.90;;;;;;5077357;28;20576;-65
2022/01/22 06:45:21;;;;;;;3.60;3.30;;;6.20;99.90;;;;;;5076086;28;20226;-64
2022/01/22 06:47:48;;;;;;;10.30;3.28;;;6.20;99.90;;;;;;5075485;28;20223;-65
2022/01/22 06:50:15;;;;;;;4.25;3.92;;;6.20;99.90;;;;;;5075563;28;20708;-64
2022/01/22 06:52:43;;;;;;;4.88;3.25;;;6.20;99.90;;;;;;5075616;28;20226;-64
2022/01/22 06:55:12;;;;;;;10.52;4.13;;;6.20;99.90;;;;;;5075609;28;20233;-64
2022/01/22 06:57:39;;;;;;;5.80;4.05;;;6.10;99.90;;;;;;5075835;28;20684;-64
2022/01/22 07:00:07;;;;;;;8.40;4.53;;;6.10;99.90;;;;;;5075207;28;20233;-64
2022/01/22 07:02:34;;;;;;;5.07;3.47;;;6.10;99.90;;;;;;5075353;28;20222;-65
2022/01/22 07:05:01;;;;;;;5.22;3.80;;;6.10;99.90;;;;;;5070617;28;20241;-65
2022/01/22 07:07:27;;;;;;;3.95;3.00;;;6.10;99.90;;;;;;5075694;28;20220;-65
2022/01/22 07:09:56;;;;;;;4.60;3.00;;;6.10;99.90;;;;;;5074786;28;20234;-65
2022/01/22 07:12:22;;;;;;;5.85;3.65;;;6.10;99.90;;;;;;5074071;28;20223;-65
2022/01/22 07:14:49;;;;;;;4.82;3.95;;;6.10;99.90;;;;;;5075072;28;20227;-65
2022/01/22 07:17:17;;;;;;;5.38;3.42;;;6.00;99.90;;;;;;5075114;28;20684;-65
2022/01/22 07:19:44;;;;;;;5.68;4.68;;;6.00;99.90;;;;;;5074927;28;20315;-65
2022/01/22 07:22:31;;;;;;;4.25;3.85;;;6.10;99.90;;;;;;5075289;28;20227;-65
2022/01/22 07:24:59;;;;;;;4.20;3.80;;;6.00;99.90;;;;;;5087167;28;20279;-65
2022/01/22 07:27:26;;;;;;;4.47;3.60;;;6.00;99.90;;;;;;5087609;28;20213;-65
2022/01/22 07:29:53;;;;;;;6.70;3.90;;;6.00;99.90;;;;;;5072611;28;20235;-65
2022/01/22 07:32:32;;;;;;;6.72;4.15;;;6.00;99.90;;;;;;5072819;28;20227;-65
2022/01/22 07:34:59;;;;;;;6.03;4.30;;;6.00;99.90;;;;;;5072099;28;20326;-65
2022/01/22 07:37:26;;;;;;;9.18;4.50;;;6.00;99.90;;;;;;5072597;28;20214;-65
2022/01/22 07:39:53;;;;;;;9.20;6.55;;;6.10;99.90;;;;;;5071912;28;20748;-65
2022/01/22 07:42:21;;;;;;;20.65;12.07;;;6.10;99.90;;;;;;5072672;28;20230;-65
2022/01/22 07:44:48;;;;;;;4.95;4.55;;;6.00;99.90;;;;;;5072869;28;20235;-65
2022/01/22 07:47:14;;;;;;;6.07;4.85;;;6.10;99.90;;;;;;5075014;28;20249;-65
2022/01/22 07:49:41;;;;;;;15.45;12.48;;;6.10;99.90;;;;;;5074075;28;20226;-65
2022/01/22 07:52:09;;;;;;;7.97;5.93;;;6.00;99.90;;;;;;5074010;28;20540;-65
2022/01/22 07:54:36;;;;;;;16.45;9.50;;;6.10;99.90;;;;;;5074890;28;20231;-65
2022/01/22 07:57:04;;;;;;;10.60;6.80;;;6.00;99.90;;;;;;5074106;28;20239;-65
2022/01/22 07:59:33;;;;;;;6.38;5.72;;;6.10;99.90;;;;;;5076572;28;20227;-65
2022/01/22 08:02:00;;;;;;;5.97;4.80;;;6.10;99.90;;;;;;5082836;28;20230;-65
2022/01/22 08:04:26;;;;;;;71.82;37.10;;;6.10;99.90;;;;;;5063075;28;20231;-65
2022/01/22 08:06:54;;;;;;;34.03;19.23;;;6.10;99.90;;;;;;5074133;28;20237;-65
2022/01/22 08:09:21;;;;;;;6.50;4.53;;;6.10;99.90;;;;;;5081249;28;20242;-65
2022/01/22 08:11:49;;;;;;;10.55;6.25;;;6.10;99.90;;;;;;5069808;28;20226;-65
2022/01/22 08:14:15;;;;;;;10.77;7.63;;;6.00;99.90;;;;;;5074297;28;20218;-65
2022/01/22 08:16:46;;;;;;;9.70;7.25;;;6.00;99.90;;;;;;5073910;28;20231;-65
2022/01/22 08:19:14;;;;;;;5.65;4.30;;;6.10;99.90;;;;;;5073801;28;20664;-65
2022/01/22 08:21:41;;;;;;;13.32;7.18;;;6.10;99.90;;;;;;5066900;28;20231;-65
2022/01/22 08:24:09;;;;;;;7.75;6.30;;;6.10;99.90;;;;;;5073200;28;20237;-65
2022/01/22 08:26:40;;;;;;;6.45;5.20;;;6.10;99.90;;;;;;5082508;28;20261;-65
2022/01/22 08:29:07;;;;;;;10.43;5.82;;;6.10;99.90;;;;;;5073590;28;20227;-65
2022/01/22 08:31:51;;;;;;;21.95;13.90;;;6.10;99.90;;;;;;5073429;28;20236;-65
2022/01/22 08:37:04;;;;;;;9.80;6.30;;;6.20;99.90;;;;;;5072859;28;20313;-65
2022/01/22 08:39:31;;;;;;;12.38;6.22;;;6.20;99.90;;;;;;5073567;28;20480;-65
2022/01/22 08:41:58;;;;;;;9.25;6.45;;;6.20;99.90;;;;;;5073063;28;20230;-65
2022/01/22 08:44:25;;;;;;;9.13;6.60;;;6.20;99.90;;;;;;5073786;28;20222;-65
2022/01/22 08:46:51;;;;;;;8.20;5.45;;;6.30;99.90;;;;;;5073609;28;20321;-65
2022/01/22 08:49:20;;;;;;;6.70;6.10;;;6.30;99.90;;;;;;5073310;28;20234;-65
2022/01/22 08:51:47;;;;;;;8.27;5.00;;;6.30;99.90;;;;;;5072777;28;20235;-65
2022/01/22 08:54:13;;;;;;;7.60;5.20;;;6.40;99.90;;;;;;5073166;28;20558;-65
2022/01/22 08:56:41;;;;;;;9.55;4.97;;;6.40;99.90;;;;;;5073554;28;20216;-65
2022/01/22 08:59:08;;;;;;;6.20;5.38;;;6.40;99.90;;;;;;5072982;28;20561;-65
2022/01/22 09:01:36;;;;;;;11.85;7.03;;;6.50;99.90;;;;;;5060867;28;20284;-65
2022/01/22 09:04:03;;;;;;;9.77;5.25;;;6.50;99.90;;;;;;5054394;28;20228;-65
2022/01/22 09:06:31;;;;;;;4.78;4.03;;;6.50;99.90;;;;;;5073355;28;20223;-65
2022/01/22 09:09:07;;;;;;;6.68;4.22;;;6.50;99.90;;;;;;5072772;28;20227;-65
2022/01/22 09:11:34;;;;;;;3.33;3.03;;;6.50;99.90;;;;;;5073364;28;20307;-65
2022/01/22 09:14:02;;;;;;;7.60;3.50;;;6.60;99.90;;;;;;5072873;28;20580;-65
2022/01/22 09:16:29;;;;;;;3.83;3.40;;;6.60;99.90;;;;;;5073240;28;20227;-65
2022/01/22 09:19:01;;;;;;;3.42;2.80;;;6.60;99.90;;;;;;5072948;28;20230;-64
2022/01/22 09:21:27;;;;;;;6.55;3.65;;;6.70;99.90;;;;;;5072702;28;20323;-65
2022/01/22 09:23:55;;;;;;;5.53;3.42;;;6.70;99.90;;;;;;5072658;28;20223;-64
2022/01/22 09:26:22;;;;;;;4.65;3.05;;;6.70;99.90;;;;;;5079681;28;20284;-65
2022/01/22 09:28:50;;;;;;;5.80;3.58;;;6.80;99.90;;;;;;5078350;28;20219;-65
2022/01/22 09:31:17;;;;;;;8.88;4.53;;;6.80;99.90;;;;;;5072433;28;20269;-65
2022/01/22 09:33:44;;;;;;;6.70;3.88;;;6.80;99.90;;;;;;5073073;28;20241;-65
2022/01/22 09:36:11;;;;;;;5.35;4.78;;;6.90;99.90;;;;;;5072509;28;20231;-65
2022/01/22 09:38:38;;;;;;;6.28;4.75;;;6.90;99.90;;;;;;5072650;28;20223;-65
2022/01/22 09:41:06;;;;;;;6.47;4.60;;;6.90;99.90;;;;;;5072199;28;20242;-65
2022/01/22 09:43:33;;;;;;;6.40;4.53;;;6.90;99.90;;;;;;5072610;28;20610;-65
2022/01/22 09:46:00;;;;;;;5.47;3.45;;;6.90;99.90;;;;;;5072807;28;20231;-65
2022/01/22 09:48:27;;;;;;;4.68;4.20;;;6.90;99.90;;;;;;5072279;28;20231;-65
2022/01/22 09:50:54;;;;;;;8.43;4.38;;;7.00;99.90;;;;;;5072633;28;20234;-65
2022/01/22 09:53:21;;;;;;;8.02;5.15;;;7.00;99.90;;;;;;5071954;28;20226;-65
2022/01/22 09:55:48;;;;;;;4.10;3.70;;;6.90;99.90;;;;;;5072717;28;20228;-65
2022/01/22 09:58:20;;;;;;;4.90;3.40;;;6.90;99.90;;;;;;5072103;28;20226;-65
2022/01/22 10:00:46;;;;;;;6.63;4.63;;;6.90;99.90;;;;;;5072205;28;20303;-65
2022/01/22 10:03:19;;;;;;;3.85;3.53;;;6.90;99.90;;;;;;5069672;28;20216;-65
2022/01/22 10:05:47;;;;;;;5.57;3.80;;;6.90;99.90;;;;;;5072548;28;20230;-65
2022/01/22 10:08:28;;;;;;;6.05;4.60;;;6.90;99.90;;;;;;5071882;28;20226;-65
2022/01/22 10:10:56;;;;;;;6.88;4.30;;;6.90;99.90;;;;;;5072528;28;20321;-65
2022/01/22 10:13:42;;;;;;;4.95;4.20;;;6.90;99.90;;;;;;5071694;28;20693;-65
2022/01/22 10:16:19;;;;;;;5.40;4.25;;;6.90;99.90;;;;;;5071998;28;20238;-65
2022/01/22 10:18:46;;;;;;;5.05;4.47;;;7.00;99.90;;;;;;5072405;28;20248;-66
2022/01/22 10:21:15;;;;;;;5.80;3.63;;;7.00;99.90;;;;;;5071693;28;20231;-65
2022/01/22 10:23:43;;;;;;;7.45;4.95;;;7.00;99.90;;;;;;5072312;28;20281;-65
2022/01/22 10:26:14;;;;;;;5.55;5.05;;;7.00;99.90;;;;;;5077790;28;20218;-65
2022/01/22 10:28:47;;;;;;;7.35;4.28;;;7.00;99.90;;;;;;5078621;28;20231;-65
2022/01/22 10:31:21;;;;;;;9.23;4.00;;;7.00;99.90;;;;;;5071877;28;20292;-65
2022/01/22 10:34:05;;;;;;;5.50;3.80;;;7.10;99.90;;;;;;5072120;28;20226;-65
2022/01/22 10:36:32;;;;;;;5.03;3.38;;;7.00;99.90;;;;;;5071971;28;20708;-65
2022/01/22 10:38:59;;;;;;;4.40;3.55;;;7.10;99.90;;;;;;5072001;28;20227;-65
2022/01/22 10:41:34;;;;;;;3.45;3.00;;;7.00;99.90;;;;;;5071726;28;20573;-65
2022/01/22 10:44:03;;;;;;;11.35;3.60;;;7.00;99.90;;;;;;5072169;28;20229;-65
2022/01/22 10:46:44;;;;;;;4.05;3.33;;;7.00;99.90;;;;;;5071699;28;20228;-65
2022/01/22 10:49:13;;;;;;;4.47;3.20;;;7.00;99.90;;;;;;5059802;28;20240;-65
2022/01/22 10:51:49;;;;;;;3.42;3.00;;;7.00;99.90;;;;;;5062839;28;20239;-66
2022/01/22 10:54:17;;;;;;;3.70;2.90;;;7.00;99.90;;;;;;5071666;28;20241;-65
2022/01/22 10:56:45;;;;;;;3.42;3.05;;;7.00;99.90;;;;;;5071775;28;20234;-65
2022/01/22 10:59:16;;;;;;;4.43;3.30;;;7.00;99.90;;;;;;5071344;28;20561;-65
2022/01/22 11:01:51;;;;;;;4.30;3.33;;;7.00;99.90;;;;;;5070774;28;20327;-65
2022/01/22 11:04:19;;;;;;;7.68;3.50;;;7.10;99.90;;;;;;5067629;28;20724;-65
2022/01/22 11:07:04;;;;;;;6.97;3.30;;;7.10;99.90;;;;;;5070081;28;20250;-65
2022/01/22 11:09:32;;;;;;;3.88;2.85;;;7.10;99.90;;;;;;5069606;28;20222;-65
2022/01/22 11:12:01;;;;;;;4.88;3.15;;;7.10;99.90;;;;;;5070210;28;20319;-65
2022/01/22 11:14:30;;;;;;;4.90;2.85;;;7.10;99.90;;;;;;5069672;28;20296;-65
2022/01/22 11:16:58;;;;;;;4.20;3.05;;;7.10;99.90;;;;;;5070337;28;20240;-65
2022/01/22 11:19:32;;;;;;;6.47;3.70;;;7.20;99.90;;;;;;5071082;28;20231;-65
2022/01/22 11:22:04;;;;;;;3.10;2.80;;;7.20;99.90;;;;;;5071695;28;20663;-65
2022/01/22 11:24:35;;;;;;;5.15;3.45;;;7.20;99.90;;;;;;5073149;28;20223;-65
2022/01/22 11:27:04;;;;;;;5.88;3.80;;;7.30;99.90;;;;;;5088219;28;20256;-65
2022/01/22 11:29:37;;;;;;;5.43;2.90;;;7.30;99.90;;;;;;5061796;28;20219;-65
2022/01/22 11:32:09;;;;;;;7.45;4.18;;;7.30;99.90;;;;;;5075341;28;20227;-65
2022/01/22 11:34:39;;;;;;;6.18;3.40;;;7.30;99.90;;;;;;5074647;28;20269;-65
2022/01/22 11:37:13;;;;;;;6.47;3.85;;;7.30;99.90;;;;;;5074931;28;20228;-65
2022/01/22 11:39:40;;;;;;;9.30;4.90;;;7.30;99.90;;;;;;5074703;28;20223;-65
2022/01/22 11:42:08;;;;;;;6.40;3.28;;;7.40;99.90;;;;;;5074980;28;20632;-65
2022/01/22 11:44:46;;;;;;;7.18;3.22;;;7.40;99.90;;;;;;5074387;28;20232;-65
2022/01/22 11:47:16;;;;;;;4.22;3.30;;;7.40;99.90;;;;;;5074920;28;20243;-66
2022/01/22 11:50:06;;;;;;;3.38;3.08;;;7.40;99.90;;;;;;5074781;28;20215;-65
2022/01/22 11:52:36;;;;;;;4.32;2.80;;;7.50;99.90;;;;;;5064051;28;20222;-65
2022/01/22 11:55:08;;;;;;;4.30;3.25;;;7.50;99.90;;;;;;5074734;28;20330;-65
2022/01/22 11:57:36;;;;;;;3.50;3.20;;;7.40;99.90;;;;;;5074355;28;20675;-65
2022/01/22 12:00:25;;;;;;;3.10;2.80;;;7.50;99.90;;;;;;5074561;28;20234;-65
2022/01/22 12:03:18;;;;;;;3.65;2.58;;;7.50;99.70;;;;;;5076555;28;20212;-65
2022/01/22 12:06:06;;;;;;;4.03;3.30;;;7.50;99.80;;;;;;5074223;28;20566;-65
2022/01/22 12:09:07;;;;;;;2.80;2.20;;;7.50;99.70;;;;;;5066716;28;20231;-66
2022/01/22 12:14:51;;;;;;;3.58;3.28;;;7.60;98.60;;;;;;5074589;28;20571;-65
2022/01/22 12:17:26;;;;;;;8.00;4.43;;;7.60;98.80;;;;;;5066641;28;20223;-65
2022/01/22 12:20:06;;;;;;;5.75;3.67;;;7.60;98.50;;;;;;5061666;28;20269;-65
2022/01/22 12:22:48;;;;;;;2.92;2.72;;;7.60;97.70;;;;;;5073760;28;20238;-65
2022/01/22 12:25:49;;;;;;;5.60;2.40;;;7.60;97.30;;;;;;5073803;28;20230;-65
2022/01/22 12:28:34;;;;;;;3.20;2.65;;;7.60;96.80;;;;;;5071178;28;20687;-65
2022/01/22 12:31:04;;;;;;;5.40;2.72;;;7.60;97.00;;;;;;5074061;28;20235;-65
2022/01/22 12:33:52;;;;;;;6.45;3.42;;;7.60;97.00;;;;;;5073693;28;20227;-65
2022/01/22 12:36:24;;;;;;;9.45;5.93;;;7.60;97.10;;;;;;5068403;28;20752;-65
2022/01/22 12:39:06;;;;;;;6.80;3.20;;;7.60;96.90;;;;;;5074188;28;20264;-65
2022/01/22 12:41:46;;;;;;;3.65;3.10;;;7.50;96.50;;;;;;5073441;28;20224;-65
2022/01/22 12:44:25;;;;;;;4.38;3.97;;;7.60;96.70;;;;;;5073364;28;20237;-65
2022/01/22 12:46:53;;;;;;;2.97;2.20;;;7.50;96.80;;;;;;5062568;28;20238;-65
2022/01/22 12:49:23;;;;;;;2.50;2.05;;;7.60;96.90;;;;;;5073149;28;20234;-65
2022/01/22 12:51:55;;;;;;;3.95;2.80;;;7.60;96.30;;;;;;5073718;28;20232;-65
2022/01/22 12:54:28;;;;;;;4.47;3.17;;;7.50;96.40;;;;;;5073117;28;20225;-65
2022/01/22 12:57:03;;;;;;;4.57;3.60;;;7.50;96.90;;;;;;5073567;28;20645;-65
2022/01/22 12:59:32;;;;;;;3.53;2.83;;;7.50;96.90;;;;;;5072898;28;20272;-65
2022/01/22 13:01:59;;;;;;;7.32;3.65;;;7.50;97.00;;;;;;5073539;28;20698;-65
2022/01/22 13:04:27;;;;;;;11.48;4.00;;;7.60;97.00;;;;;;5063203;28;20703;-65
2022/01/22 13:06:54;;;;;;;12.45;3.92;;;7.60;97.00;;;;;;5073551;28;20603;-65
2022/01/22 13:09:21;;;;;;;4.93;3.20;;;7.50;97.00;;;;;;5059462;28;20302;-65
2022/01/22 13:11:52;;;;;;;4.85;3.70;;;7.60;97.30;;;;;;5073298;28;20242;-65
2022/01/22 13:14:27;;;;;;;5.15;3.70;;;7.60;97.40;;;;;;5060361;28;20227;-65
2022/01/22 13:16:56;;;;;;;3.95;3.20;;;7.60;97.70;;;;;;5073111;28;20223;-65
2022/01/22 13:19:24;;;;;;;6.88;3.38;;;7.60;97.90;;;;;;5072691;28;20238;-65
2022/01/22 13:21:54;;;;;;;5.78;5.00;;;7.60;98.00;;;;;;5072783;28;20227;-65
2022/01/22 13:24:25;;;;;;;8.88;4.95;;;7.60;98.10;;;;;;5072685;28;20242;-65
2022/01/22 13:26:57;;;;;;;5.35;3.92;;;7.60;98.20;;;;;;5076711;28;20219;-65
2022/01/22 13:29:26;;;;;;;5.65;3.58;;;7.60;98.40;;;;;;5081595;28;20230;-65
2022/01/22 13:32:10;;;;;;;5.15;4.65;;;7.60;98.60;;;;;;5072947;28;20224;-65
2022/01/22 13:35:14;;;;;;;3.95;3.40;;;7.60;98.50;;;;;;5072357;28;20244;-65
2022/01/22 13:48:59;;;;;;;6.13;3.55;;;7.60;98.00;;;;;;5072836;28;20560;-65
2022/01/22 13:51:27;;;;;;;4.15;3.25;;;7.50;97.50;;;;;;5072283;28;20572;-65
2022/01/22 13:53:56;;;;;;;6.53;3.25;;;7.60;96.80;;;;;;5072621;28;20228;-65
2022/01/22 13:56:43;;;;;;;6.20;4.03;;;7.60;96.60;;;;;;5072140;28;20563;-65
2022/01/22 13:59:15;;;;;;;4.70;3.40;;;7.50;96.80;;;;;;5071879;28;20217;-65
2022/01/22 14:01:50;;;;;;;4.25;3.83;;;7.50;97.00;;;;;;5072421;28;20227;-65
2022/01/22 14:04:17;;;;;;;6.25;3.40;;;7.50;97.00;;;;;;5062294;28;20725;-65
2022/01/22 14:06:46;;;;;;;4.85;4.38;;;7.50;97.10;;;;;;5072681;28;20270;-65
2022/01/22 14:09:16;;;;;;;5.25;3.97;;;7.50;97.20;;;;;;5071953;28;20305;-65
2022/01/22 14:12:05;;;;;;;4.95;3.95;;;7.50;97.20;;;;;;5072390;28;20235;-65
2022/01/22 14:14:58;;;;;;;5.00;3.45;;;7.50;97.40;;;;;;5065616;28;20947;-65
2022/01/22 14:17:29;;;;;;;5.00;4.35;;;7.50;97.50;;;;;;5072331;28;20231;-65
2022/01/22 14:20:01;;;;;;;6.63;3.97;;;7.50;97.30;;;;;;5072442;28;20540;-65
2022/01/22 14:22:28;;;;;;;9.18;4.85;;;7.50;97.40;;;;;;5059302;28;20314;-65
2022/01/22 14:25:13;;;;;;;3.65;3.28;;;7.50;97.50;;;;;;5079315;28;20226;-66
2022/01/22 14:27:40;;;;;;;6.53;3.30;;;7.40;97.60;;;;;;5072001;28;20750;-65